Flight Track Log - Related Links

Times and Time Zones

All times are in EDT time to prevent confusion due to time zone crossing. See the N867DS flight status page for this flight to view local times or setup timezone preferences in your user account.

Time Position Orientation Groundspeed Altitude Reporting Facility
EDT Latitude Longitude Course Direction KTS MPH feet Rate Location/Type
Tue 03:34:00 PM 26.2996 -81.6078 46° Northeast  Level FlightAware Approximate
Tue 03:35:00 PM 26.3139 -81.5721 47° Northeast  Level Estimated
Tue 03:36:00 PM 26.3389 -81.5446 45° Northeast  Level FlightAware Approximate
Tue 03:37:00 PM 26.3638 -81.5171 45° Northeast  Level FlightAware Approximate
Tue 03:38:00 PM 26.3888 -81.4895 45° Northeast  Level FlightAware Approximate
Tue 03:39:00 PM 26.4137 -81.4620 45° Northeast  Level FlightAware Approximate
Tue 03:40:00 PM 26.4387 -81.4344 45° Northeast  Level FlightAware Approximate
Tue 03:41:00 PM 26.4636 -81.4068 45° Northeast  Level FlightAware Approximate
Tue 03:42:00 PM 26.4885 -81.3792 45° Northeast  Level FlightAware Approximate
Tue 03:43:00 PM 26.5001 -81.3422 42° Northeast  Level Estimated
Tue 03:44:00 PM 26.5117 -81.3052 77° East  Level Estimated
Tue 03:45:00 PM 26.5306 -81.2722 57° Northeast  Level FlightAware Approximate
Tue 03:46:00 PM 26.5495 -81.2392 57° Northeast  Level FlightAware Approximate
Tue 03:46:36 PM 26.5544 -81.3411 57° Northeast 144 166 3,000  Level Miami Center
Tue 03:47:37 PM 26.5786 -81.3072 51° Northeast 131 151 3,000  Level Miami Center
Tue 03:48:36 PM 26.6025 -81.2756 50° Northeast 142 163 3,000  Level Miami Center
Tue 03:49:00 PM 26.6062 -81.1400 57° Northeast  Level FlightAware Approximate
Tue 03:49:36 PM 26.6244 -81.2439 52° Northeast 136 157 3,000  Level Miami Center
Tue 03:50:00 PM 26.6251 -81.1069 57° Northeast  Level FlightAware Approximate
Tue 03:50:36 PM 26.6483 -81.2097 52° Northeast 136 157 3,100  Level Miami Center
Tue 03:51:37 PM 26.6683 -81.1733 58° Northeast 131 151 3,100  Level Miami Center
Tue 03:52:37 PM 26.6900 -81.1394 54° Northeast 136 157 3,100 -50 Level Miami Center
Tue 03:53:37 PM 26.7119 -81.1053 54° Northeast 136 157 3,000  Descending Miami Center
Tue 03:54:36 PM 26.6989 -81.0514 105° East 136 157 3,100  Climbing Miami Center
Tue 03:55:37 PM 26.7125 -81.0122 69° East 136 157 3,000 -50 Descending Miami Center
Tue 03:56:36 PM 26.7242 -80.9686 73° East 136 157 3,000  Level Miami Center
Tue 03:57:36 PM 26.7358 -80.9294 72° East 136 157 3,000 -50 Level Miami Center
Tue 03:58:36 PM 26.7433 -80.8856 79° East 136 157 2,900 33 Descending Miami Center
Tue 04:00:37 PM 26.7536 -80.8092 81° East 130 150 3,100 66 Climbing Miami Center
Tue 04:01:37 PM 26.7614 -80.7628 79° East 130 150 3,100  Level Miami Center
Tue 04:02:36 PM 26.7625 -80.7211 88° East 130 150 3,100 50 Level Miami Center
Tue 04:03:36 PM 26.7694 -80.6864 77° East 130 150 3,200  Climbing Miami Center
Tue 04:04:36 PM 26.7772 -80.6378 80° East 130 150 3,100 -99 Descending Miami Center
Tue 04:05:37 PM 26.7864 -80.6008 74° East 136 157 3,000 -98 Descending Miami Center
Tue 04:07:00 PM 26.7903 -80.5489 85° East  Level FlightAware Approximate
Tue 04:14:00 PM 26.8204 -80.2878 78° East  Level FlightAware Approximate
Tue 04:15:00 PM 26.8271 -80.2510 78° East  Level FlightAware Approximate
Tue 04:16:00 PM 26.8333 -80.2167 78° East  Level FlightAware Approximate

Login

Don't have an account? Register now (free) for customized features, flight alerts, and more!